createdAt,value
2023-05-09T00:00:45.919Z,530.00
2023-05-09T00:01:45.929Z,528.00
2023-05-09T00:02:46.046Z,524.00
2023-05-09T00:03:45.929Z,524.00
2023-05-09T00:04:45.965Z,520.00
2023-05-09T00:05:45.928Z,520.00
2023-05-09T00:06:45.936Z,519.00
2023-05-09T00:07:45.935Z,517.00
2023-05-09T00:08:45.926Z,520.00
2023-05-09T00:09:45.913Z,520.00
2023-05-09T00:10:45.910Z,520.00
2023-05-09T00:11:45.908Z,519.00
2023-05-09T00:12:45.961Z,521.00
2023-05-09T00:13:45.928Z,520.00
2023-05-09T00:14:45.999Z,519.00
2023-05-09T00:15:45.913Z,518.00
2023-05-09T00:16:46.040Z,517.00
2023-05-09T00:17:45.994Z,519.00
2023-05-09T00:18:45.930Z,519.00
2023-05-09T00:19:45.907Z,520.00
2023-05-09T00:20:45.915Z,522.00
2023-05-09T00:21:45.949Z,520.00
2023-05-09T00:22:45.934Z,521.00
2023-05-09T00:23:45.944Z,523.00
2023-05-09T00:24:45.944Z,523.00
2023-05-09T00:25:45.933Z,521.00
2023-05-09T00:26:45.923Z,521.00
2023-05-09T00:27:45.921Z,520.00
2023-05-09T00:28:45.936Z,520.00
2023-05-09T00:29:45.945Z,519.00
2023-05-09T00:30:46.035Z,518.00
2023-05-09T00:31:45.961Z,518.00
2023-05-09T00:32:45.945Z,518.00
2023-05-09T00:33:45.932Z,519.00
2023-05-09T00:34:45.942Z,520.00
2023-05-09T00:35:45.948Z,521.00
2023-05-09T00:36:45.955Z,522.00
2023-05-09T00:37:45.951Z,519.00
2023-05-09T00:38:45.953Z,520.00
2023-05-09T00:39:45.948Z,521.00
2023-05-09T00:40:45.972Z,521.00
2023-05-09T00:41:45.970Z,518.00
2023-05-09T00:42:45.976Z,519.00
2023-05-09T00:43:45.982Z,518.00
2023-05-09T00:44:45.987Z,520.00
2023-05-09T00:45:46.027Z,522.00
2023-05-09T00:46:46.069Z,524.00
2023-05-09T00:47:46.024Z,522.00
2023-05-09T00:48:46.013Z,522.00
2023-05-09T00:49:46.017Z,521.00
2023-05-09T00:50:46.032Z,525.00
2023-05-09T00:51:46.028Z,526.00
2023-05-09T00:52:46.026Z,524.00
2023-05-09T00:53:46.052Z,522.00
2023-05-09T00:54:46.039Z,521.00
2023-05-09T00:55:46.044Z,520.00
2023-05-09T00:56:46.072Z,519.00
2023-05-09T00:57:46.108Z,518.00
2023-05-09T00:58:46.102Z,520.00
2023-05-09T00:59:46.102Z,523.00
2023-05-09T01:00:46.104Z,521.00
2023-05-09T01:01:46.210Z,521.00
2023-05-09T01:02:46.255Z,520.00
2023-05-09T01:03:46.177Z,519.00
2023-05-09T01:04:46.129Z,519.00
2023-05-09T01:05:46.130Z,518.00
2023-05-09T01:06:46.150Z,517.00
2023-05-09T01:07:46.156Z,514.00
2023-05-09T01:08:46.173Z,514.00
2023-05-09T01:09:46.164Z,515.00
2023-05-09T01:10:46.193Z,514.00
2023-05-09T01:11:46.194Z,512.00
2023-05-09T01:12:46.229Z,511.00
2023-05-09T01:13:46.314Z,512.00
2023-05-09T01:14:46.258Z,512.00
2023-05-09T01:15:46.264Z,514.00
2023-05-09T01:16:46.248Z,514.00
2023-05-09T01:17:46.312Z,514.00
2023-05-09T01:18:46.372Z,511.00
2023-05-09T01:19:46.286Z,510.00
2023-05-09T01:20:46.310Z,510.00
2023-05-09T01:21:46.316Z,512.00
2023-05-09T01:22:46.318Z,512.00
2023-05-09T01:23:46.351Z,512.00
2023-05-09T01:24:46.343Z,513.00
2023-05-09T01:25:46.365Z,511.00
2023-05-09T01:26:46.360Z,511.00
2023-05-09T01:27:46.387Z,511.00
2023-05-09T01:28:46.369Z,511.00
2023-05-09T01:29:46.385Z,511.00
2023-05-09T01:30:46.397Z,510.00
2023-05-09T01:31:46.482Z,512.00
2023-05-09T01:32:46.458Z,512.00
2023-05-09T01:33:46.403Z,513.00
2023-05-09T01:34:46.498Z,512.00
2023-05-09T01:35:46.410Z,513.00
2023-05-09T01:36:46.444Z,513.00
2023-05-09T01:37:46.465Z,514.00
2023-05-09T01:38:46.459Z,516.00
2023-05-09T01:39:46.453Z,518.00
2023-05-09T01:40:46.480Z,517.00
2023-05-09T01:41:46.486Z,518.00
2023-05-09T01:42:46.490Z,515.00
2023-05-09T01:43:46.548Z,515.00
2023-05-09T01:44:46.558Z,514.00
2023-05-09T01:45:46.534Z,515.00
2023-05-09T01:46:46.560Z,515.00
2023-05-09T01:47:46.563Z,515.00
2023-05-09T01:48:46.556Z,514.00
2023-05-09T01:49:46.552Z,519.00
2023-05-09T01:50:46.652Z,521.00
2023-05-09T01:51:46.605Z,522.00
2023-05-09T01:52:46.605Z,523.00
2023-05-09T01:53:46.596Z,523.00
2023-05-09T01:54:46.608Z,525.00
2023-05-09T01:55:46.609Z,527.00
2023-05-09T01:56:46.614Z,527.00
2023-05-09T01:57:46.610Z,529.00
2023-05-09T01:58:46.650Z,532.00
2023-05-09T01:59:46.616Z,530.00
2023-05-09T02:00:46.655Z,530.00
2023-05-09T02:01:46.671Z,529.00
2023-05-09T02:02:46.772Z,530.00
2023-05-09T02:03:46.657Z,529.00
2023-05-09T02:04:46.684Z,527.00
2023-05-09T02:05:46.680Z,526.00
2023-05-09T02:06:46.792Z,526.00
2023-05-09T02:07:46.720Z,527.00
2023-05-09T02:08:46.711Z,526.00
2023-05-09T02:09:46.738Z,525.00
2023-05-09T02:10:46.743Z,524.00
2023-05-09T02:11:46.750Z,525.00
2023-05-09T02:12:46.797Z,524.00
2023-05-09T02:13:46.763Z,523.00
2023-05-09T02:14:46.780Z,524.00
2023-05-09T02:15:46.784Z,524.00
2023-05-09T02:16:46.824Z,524.00
2023-05-09T02:17:46.841Z,523.00
2023-05-09T02:18:46.805Z,524.00
2023-05-09T02:19:46.828Z,523.00
2023-05-09T02:20:46.868Z,521.00
2023-05-09T02:21:46.845Z,521.00
2023-05-09T02:22:46.942Z,522.00
2023-05-09T02:23:46.859Z,520.00
2023-05-09T02:24:46.868Z,517.00
2023-05-09T02:25:46.910Z,519.00
2023-05-09T02:26:46.905Z,518.00
2023-05-09T02:27:46.895Z,517.00
2023-05-09T02:28:46.917Z,519.00
2023-05-09T02:29:46.934Z,523.00
2023-05-09T02:30:46.938Z,526.00
2023-05-09T02:31:46.993Z,528.00
2023-05-09T02:32:46.977Z,528.00
2023-05-09T02:33:46.972Z,527.00
2023-05-09T02:34:46.964Z,528.00
2023-05-09T02:35:47.008Z,528.00
2023-05-09T02:36:47.019Z,532.00
2023-05-09T02:37:47.017Z,530.00
2023-05-09T02:38:47.106Z,530.00
2023-05-09T02:39:47.016Z,532.00
2023-05-09T02:40:47.026Z,533.00
2023-05-09T02:41:47.048Z,534.00
2023-05-09T02:42:47.051Z,535.00
2023-05-09T02:43:47.067Z,535.00
2023-05-09T02:44:47.084Z,534.00
2023-05-09T02:45:47.115Z,536.00
2023-05-09T02:46:47.156Z,536.00
2023-05-09T02:47:47.122Z,534.00
2023-05-09T02:48:47.108Z,530.00
2023-05-09T02:49:47.098Z,528.00
2023-05-09T02:50:47.128Z,528.00
2023-05-09T02:51:47.136Z,528.00
2023-05-09T02:52:47.152Z,527.00
2023-05-09T02:53:47.151Z,525.00
2023-05-09T02:54:47.232Z,523.00
2023-05-09T02:55:47.176Z,521.00
2023-05-09T02:56:47.186Z,522.00
2023-05-09T02:57:47.203Z,521.00
2023-05-09T02:58:47.189Z,524.00
2023-05-09T02:59:47.206Z,524.00
2023-05-09T03:00:47.223Z,522.00
2023-05-09T03:01:47.262Z,518.00
2023-05-09T03:02:47.315Z,518.00
2023-05-09T03:03:47.314Z,519.00
2023-05-09T03:04:47.260Z,519.00
2023-05-09T03:05:47.270Z,520.00
2023-05-09T03:06:47.290Z,520.00
2023-05-09T03:07:47.278Z,521.00
2023-05-09T03:08:47.299Z,522.00
2023-05-09T03:09:47.294Z,524.00
2023-05-09T03:10:47.377Z,523.00
2023-05-09T03:11:47.315Z,522.00
2023-05-09T03:12:47.334Z,520.00
2023-05-09T03:13:47.341Z,521.00
2023-05-09T03:14:47.341Z,525.00
2023-05-09T03:15:47.352Z,524.00
2023-05-09T03:16:47.369Z,525.00
2023-05-09T03:17:47.396Z,526.00
2023-05-09T03:18:47.359Z,527.00
2023-05-09T03:19:47.374Z,528.00
2023-05-09T03:20:47.376Z,530.00
2023-05-09T03:21:47.392Z,527.00
2023-05-09T03:22:47.386Z,526.00
2023-05-09T03:23:47.401Z,525.00
2023-05-09T03:24:47.440Z,523.00
2023-05-09T03:25:47.437Z,524.00
2023-05-09T03:26:47.516Z,525.00
2023-05-09T03:27:47.448Z,524.00
2023-05-09T03:28:47.457Z,521.00
2023-05-09T03:29:47.485Z,521.00
2023-05-09T03:30:47.496Z,521.00
2023-05-09T03:31:47.568Z,520.00
2023-05-09T03:32:47.537Z,519.00
2023-05-09T03:33:47.563Z,519.00
2023-05-09T03:34:47.540Z,520.00
2023-05-09T03:35:47.563Z,521.00
2023-05-09T03:36:47.572Z,522.00
2023-05-09T03:37:47.574Z,521.00
2023-05-09T03:38:47.677Z,519.00
2023-05-09T03:39:47.596Z,520.00
2023-05-09T03:40:47.622Z,519.00
2023-05-09T03:41:47.628Z,516.00
2023-05-09T03:42:47.724Z,518.00
2023-05-09T03:43:47.648Z,518.00
2023-05-09T03:44:47.650Z,519.00
2023-05-09T03:45:47.673Z,520.00
2023-05-09T03:46:47.714Z,520.00
2023-05-09T03:47:47.696Z,520.00
2023-05-09T03:48:47.687Z,524.00
2023-05-09T03:49:47.724Z,523.00
2023-05-09T03:50:47.724Z,519.00
2023-05-09T03:51:47.750Z,517.00
2023-05-09T03:52:47.759Z,519.00
2023-05-09T03:53:47.752Z,519.00
2023-05-09T03:54:47.783Z,519.00
2023-05-09T03:55:47.801Z,519.00
2023-05-09T03:56:47.801Z,519.00
2023-05-09T03:57:47.836Z,518.00
2023-05-09T03:58:47.912Z,518.00
2023-05-09T03:59:47.837Z,516.00
2023-05-09T04:00:47.836Z,517.00
2023-05-09T04:01:47.880Z,515.00
2023-05-09T04:02:47.962Z,516.00
2023-05-09T04:03:47.885Z,518.00
2023-05-09T04:04:47.884Z,519.00
2023-05-09T04:05:47.893Z,517.00
2023-05-09T04:06:47.924Z,514.00
2023-05-09T04:07:47.905Z,518.00
2023-05-09T04:08:47.933Z,520.00
2023-05-09T04:09:47.905Z,522.00
2023-05-09T04:10:47.919Z,523.00
2023-05-09T04:11:47.924Z,525.00
2023-05-09T04:12:47.993Z,524.00
2023-05-09T04:13:47.950Z,524.00
2023-05-09T04:14:49.184Z,525.00
2023-05-09T04:15:47.968Z,524.00
2023-05-09T04:16:48.018Z,524.00
2023-05-09T04:17:48.000Z,525.00
2023-05-09T04:18:47.990Z,527.00
2023-05-09T04:19:47.976Z,529.00
2023-05-09T04:20:48.006Z,528.00
2023-05-09T04:21:48.002Z,528.00
2023-05-09T04:22:48.001Z,528.00
2023-05-09T04:23:48.028Z,526.00
2023-05-09T04:24:48.039Z,525.00
2023-05-09T04:25:48.032Z,525.00
2023-05-09T04:26:48.069Z,525.00
2023-05-09T04:27:48.084Z,525.00
2023-05-09T04:28:48.086Z,523.00
2023-05-09T04:29:48.070Z,521.00
2023-05-09T04:30:48.189Z,522.00
2023-05-09T04:31:48.294Z,520.00
2023-05-09T04:32:48.150Z,521.00
2023-05-09T04:33:48.115Z,520.00
2023-05-09T04:34:48.124Z,520.00
2023-05-09T04:35:48.148Z,520.00
2023-05-09T04:36:48.140Z,520.00
2023-05-09T04:37:48.153Z,521.00
2023-05-09T04:38:48.185Z,519.00
2023-05-09T04:39:48.189Z,522.00
2023-05-09T04:40:48.182Z,521.00
2023-05-09T04:41:48.205Z,522.00
2023-05-09T04:42:48.222Z,522.00
2023-05-09T04:43:48.235Z,524.00
2023-05-09T04:44:48.236Z,524.00
2023-05-09T04:45:48.300Z,522.00
2023-05-09T04:46:48.347Z,522.00
2023-05-09T04:47:48.340Z,521.00
2023-05-09T04:48:48.294Z,522.00
2023-05-09T04:49:48.326Z,522.00
2023-05-09T04:50:48.311Z,522.00
2023-05-09T04:51:48.326Z,519.00
2023-05-09T04:52:48.349Z,519.00
2023-05-09T04:53:48.356Z,519.00
2023-05-09T04:54:48.415Z,519.00
2023-05-09T04:55:48.376Z,520.00
2023-05-09T04:56:50.610Z,522.00
2023-05-09T04:57:48.414Z,523.00
2023-05-09T04:58:48.414Z,521.00
2023-05-09T04:59:48.447Z,519.00
2023-05-09T05:00:48.473Z,520.00
2023-05-09T05:01:48.503Z,521.00
2023-05-09T05:02:48.566Z,524.00
2023-05-09T05:03:48.490Z,523.00
2023-05-09T05:04:48.530Z,521.00
2023-05-09T05:05:48.519Z,522.00
2023-05-09T05:06:48.514Z,524.00
2023-05-09T05:07:48.535Z,522.00
2023-05-09T05:08:48.557Z,521.00
2023-05-09T05:09:48.577Z,520.00
2023-05-09T05:10:48.568Z,519.00
2023-05-09T05:11:59.458Z,517.00
2023-05-09T05:12:49.615Z,519.00
2023-05-09T05:13:48.571Z,519.00
2023-05-09T05:14:48.563Z,521.00
2023-05-09T05:15:48.631Z,519.00
2023-05-09T05:16:48.560Z,520.00
2023-05-09T05:17:48.604Z,522.00
2023-05-09T05:18:48.619Z,523.00
2023-05-09T05:19:48.523Z,525.00
2023-05-09T05:20:48.510Z,525.00
2023-05-09T05:21:48.511Z,524.00
2023-05-09T05:22:48.519Z,522.00
2023-05-09T05:23:48.533Z,522.00
2023-05-09T05:24:48.501Z,524.00
2023-05-09T05:25:48.497Z,526.00
2023-05-09T05:26:48.505Z,527.00
2023-05-09T05:27:48.460Z,526.00
2023-05-09T05:28:48.465Z,524.00
2023-05-09T05:29:48.493Z,531.00
2023-05-09T05:30:48.472Z,545.00
2023-05-09T05:31:48.493Z,561.00
2023-05-09T05:32:48.537Z,568.00
2023-05-09T05:33:48.577Z,583.00
2023-05-09T05:34:48.538Z,611.00
2023-05-09T05:35:48.419Z,623.00
2023-05-09T05:36:48.436Z,669.00
2023-05-09T05:37:49.213Z,688.00
2023-05-09T05:38:48.412Z,702.00
2023-05-09T05:39:48.413Z,715.00
2023-05-09T05:40:48.392Z,781.00
2023-05-09T05:41:48.405Z,775.00
2023-05-09T05:42:48.359Z,781.00
2023-05-09T05:43:48.539Z,744.00
2023-05-09T05:44:48.486Z,728.00
2023-05-09T05:45:48.510Z,724.00
2023-05-09T05:46:48.565Z,721.00
2023-05-09T05:47:48.716Z,711.00
2023-05-09T05:48:48.687Z,701.00
2023-05-09T05:49:48.712Z,691.00
2023-05-09T05:50:48.836Z,686.00
2023-05-09T05:51:48.837Z,680.00
2023-05-09T05:52:48.770Z,676.00
2023-05-09T05:53:48.771Z,674.00
2023-05-09T05:54:48.752Z,670.00
2023-05-09T05:55:48.786Z,750.00
2023-05-09T05:56:48.780Z,729.00
2023-05-09T05:57:48.788Z,714.00
2023-05-09T05:58:48.756Z,701.00
2023-05-09T05:59:48.754Z,690.00
2023-05-09T06:00:48.775Z,695.00
2023-05-09T06:01:48.765Z,682.00
2023-05-09T06:02:48.845Z,665.00
2023-05-09T06:03:48.806Z,661.00
2023-05-09T06:04:48.744Z,657.00
2023-05-09T06:05:48.723Z,656.00
2023-05-09T06:06:48.751Z,660.00
2023-05-09T06:07:48.741Z,659.00
2023-05-09T06:08:48.727Z,656.00
2023-05-09T06:09:48.733Z,653.00
2023-05-09T06:10:48.711Z,649.00
2023-05-09T06:11:48.726Z,645.00
2023-05-09T06:12:49.121Z,645.00
2023-05-09T06:13:49.051Z,645.00
2023-05-09T06:14:48.740Z,641.00
2023-05-09T06:15:48.727Z,662.00
2023-05-09T06:16:48.802Z,663.00
2023-05-09T06:17:48.823Z,664.00
2023-05-09T06:18:49.088Z,658.00
2023-05-09T06:19:48.793Z,655.00
2023-05-09T06:20:48.761Z,649.00
2023-05-09T06:21:48.785Z,644.00
2023-05-09T06:22:48.845Z,644.00
2023-05-09T06:24:05.104Z,646.00
2023-05-09T06:24:49.770Z,652.00
2023-05-09T06:25:48.759Z,655.00
2023-05-09T06:26:48.727Z,655.00
2023-05-09T06:27:48.770Z,661.00
2023-05-09T06:28:48.771Z,700.00
2023-05-09T06:29:48.726Z,704.00
2023-05-09T06:30:48.754Z,706.00
2023-05-09T06:31:48.771Z,717.00
2023-05-09T06:32:48.774Z,759.00
2023-05-09T06:33:49.100Z,763.00
2023-05-09T06:34:48.712Z,762.00
2023-05-09T06:35:48.696Z,759.00
2023-05-09T06:36:48.678Z,756.00
2023-05-09T06:37:49.288Z,742.00
2023-05-09T06:38:49.173Z,725.00
2023-05-09T06:39:48.652Z,675.00
2023-05-09T06:40:48.665Z,667.00
2023-05-09T06:41:48.650Z,662.00
2023-05-09T06:42:48.665Z,658.00
2023-05-09T06:43:49.970Z,657.00
2023-05-09T06:44:48.711Z,655.00
2023-05-09T06:45:48.700Z,658.00
2023-05-09T06:46:48.752Z,660.00
2023-05-09T06:47:48.701Z,654.00
2023-05-09T06:48:48.683Z,657.00
2023-05-09T06:49:48.674Z,659.00
2023-05-09T06:50:48.676Z,670.00
2023-05-09T06:51:48.684Z,678.00
2023-05-09T06:52:48.681Z,679.00
2023-05-09T06:53:49.097Z,677.00
2023-05-09T06:54:48.792Z,741.00
2023-05-09T06:55:48.742Z,707.00
2023-05-09T06:56:48.864Z,694.00
2023-05-09T06:57:48.826Z,704.00
2023-05-09T06:58:49.182Z,709.00
2023-05-09T06:59:49.101Z,702.00
2023-05-09T07:00:48.821Z,692.00
2023-05-09T07:01:48.903Z,680.00
2023-05-09T07:02:48.729Z,672.00
2023-05-09T07:03:48.661Z,664.00
2023-05-09T07:04:49.130Z,663.00
2023-05-09T07:05:48.667Z,662.00
2023-05-09T07:06:48.655Z,690.00
2023-05-09T07:07:48.668Z,691.00
2023-05-09T07:08:48.685Z,726.00
2023-05-09T07:09:50.729Z,724.00
2023-05-09T07:10:48.781Z,715.00
2023-05-09T07:11:48.647Z,707.00
2023-05-09T07:12:48.660Z,686.00
2023-05-09T07:13:48.645Z,675.00
2023-05-09T07:14:49.111Z,663.00
2023-05-09T07:15:48.636Z,656.00
2023-05-09T07:16:48.618Z,673.00
2023-05-09T07:17:48.630Z,696.00
2023-05-09T07:18:48.595Z,693.00
2023-05-09T07:19:48.596Z,691.00
2023-05-09T07:20:48.591Z,690.00
2023-05-09T07:21:48.566Z,684.00
2023-05-09T07:22:48.634Z,678.00
2023-05-09T07:23:48.564Z,667.00
2023-05-09T07:24:48.576Z,660.00
2023-05-09T07:25:48.591Z,660.00
2023-05-09T07:26:48.662Z,704.00
2023-05-09T07:27:48.533Z,734.00
2023-05-09T07:28:48.523Z,756.00
2023-05-09T07:29:48.593Z,779.00
2023-05-09T07:30:48.505Z,784.00
2023-05-09T07:31:48.552Z,788.00
2023-05-09T07:32:48.561Z,800.00
2023-05-09T07:33:48.596Z,845.00
2023-05-09T07:34:48.623Z,857.00
2023-05-09T07:35:48.475Z,861.00
2023-05-09T07:36:48.486Z,837.00
2023-05-09T07:37:48.460Z,835.00
2023-05-09T07:38:48.608Z,804.00
2023-05-09T07:39:48.593Z,851.00
2023-05-09T07:40:48.450Z,880.00
2023-05-09T07:41:48.786Z,767.00
2023-05-09T07:42:48.505Z,800.00
2023-05-09T07:43:48.435Z,769.00
2023-05-09T07:44:48.470Z,755.00
2023-05-09T07:45:48.475Z,740.00
2023-05-09T07:46:48.548Z,807.00
2023-05-09T07:47:48.549Z,797.00
2023-05-09T07:48:48.554Z,815.00
2023-05-09T07:49:48.561Z,816.00
2023-05-09T07:50:48.589Z,808.00
2023-05-09T07:51:48.600Z,775.00
2023-05-09T07:52:48.606Z,762.00
2023-05-09T07:53:48.630Z,772.00
2023-05-09T07:54:48.650Z,778.00
2023-05-09T07:55:48.630Z,848.00
2023-05-09T07:56:48.638Z,879.00
2023-05-09T07:57:48.663Z,902.00
2023-05-09T07:58:48.683Z,909.00
2023-05-09T07:59:49.141Z,912.00
2023-05-09T08:00:48.628Z,920.00
2023-05-09T08:01:48.639Z,935.00
2023-05-09T08:02:48.711Z,939.00
2023-05-09T08:03:48.758Z,939.00
2023-05-09T08:04:48.646Z,939.00
2023-05-09T08:05:48.629Z,942.00
2023-05-09T08:06:48.639Z,956.00
2023-05-09T08:07:48.692Z,978.00
2023-05-09T08:08:48.690Z,988.00
2023-05-09T08:09:48.745Z,990.00
2023-05-09T08:10:48.754Z,930.00
2023-05-09T08:11:48.767Z,937.00
2023-05-09T08:12:48.846Z,947.00
2023-05-09T08:13:48.841Z,949.00
2023-05-09T08:14:48.950Z,962.00
2023-05-09T08:15:48.924Z,997.00
2023-05-09T08:16:48.947Z,1008.00
2023-05-09T08:17:49.033Z,1018.00
2023-05-09T08:18:49.128Z,1022.00
2023-05-09T08:19:49.133Z,1020.00
2023-05-09T08:20:49.180Z,1005.00
2023-05-09T08:21:49.206Z,1005.00
2023-05-09T08:22:49.209Z,999.00
2023-05-09T08:23:49.647Z,978.00
2023-05-09T08:24:49.220Z,903.00
2023-05-09T08:25:49.199Z,888.00
2023-05-09T08:26:49.241Z,896.00
2023-05-09T08:27:50.069Z,895.00
2023-05-09T08:28:49.243Z,812.00
2023-05-09T08:29:49.241Z,852.00
2023-05-09T08:30:49.311Z,736.00
2023-05-09T08:31:49.251Z,757.00
2023-05-09T08:32:49.230Z,765.00
2023-05-09T08:33:49.254Z,766.00
2023-05-09T08:34:49.254Z,767.00
2023-05-09T08:35:49.248Z,834.00
2023-05-09T08:36:49.265Z,833.00
2023-05-09T08:37:49.284Z,824.00
2023-05-09T08:38:49.322Z,849.00
2023-05-09T08:39:49.628Z,880.00
2023-05-09T08:40:49.358Z,892.00
2023-05-09T08:41:49.329Z,907.00
2023-05-09T08:42:49.353Z,964.00
2023-05-09T08:43:49.618Z,979.00
2023-05-09T08:44:49.371Z,984.00
2023-05-09T08:45:49.355Z,989.00
2023-05-09T08:46:49.497Z,946.00
2023-05-09T08:47:49.389Z,988.00
2023-05-09T08:48:49.631Z,998.00
2023-05-09T08:49:49.410Z,1008.00
2023-05-09T08:50:49.372Z,1017.00
2023-05-09T08:51:49.397Z,1020.00
2023-05-09T08:52:49.430Z,1018.00
2023-05-09T08:53:49.628Z,1016.00
2023-05-09T08:54:49.533Z,1018.00
2023-05-09T08:55:49.536Z,1014.00
2023-05-09T08:56:49.608Z,1020.00
2023-05-09T08:57:49.598Z,1032.00
2023-05-09T08:58:49.649Z,1046.00
2023-05-09T08:59:49.718Z,1058.00
2023-05-09T09:00:49.755Z,1075.00
2023-05-09T09:01:49.919Z,1079.00
2023-05-09T09:02:49.979Z,1078.00
2023-05-09T09:03:49.933Z,1068.00
2023-05-09T09:04:50.020Z,1058.00
2023-05-09T09:05:50.104Z,1051.00
2023-05-09T09:06:50.140Z,1044.00
2023-05-09T09:07:50.180Z,1037.00
2023-05-09T09:08:50.662Z,1036.00
2023-05-09T09:09:50.266Z,1034.00
2023-05-09T09:10:50.369Z,1036.00
2023-05-09T09:11:50.399Z,1035.00
2023-05-09T09:12:50.538Z,1027.00
2023-05-09T09:13:50.645Z,1021.00
2023-05-09T09:14:50.642Z,1015.00
2023-05-09T09:15:50.630Z,1012.00
2023-05-09T09:16:50.711Z,1012.00
2023-05-09T09:17:50.842Z,1007.00
2023-05-09T09:18:50.907Z,1003.00
2023-05-09T09:19:50.909Z,999.00
2023-05-09T09:20:50.970Z,991.00
2023-05-09T09:21:51.046Z,973.00
2023-05-09T09:22:51.076Z,969.00
2023-05-09T09:23:51.156Z,975.00
2023-05-09T09:24:51.655Z,975.00
2023-05-09T09:25:51.267Z,942.00
2023-05-09T09:26:51.342Z,902.00
2023-05-09T09:27:51.402Z,888.00
2023-05-09T09:28:51.427Z,861.00
2023-05-09T09:29:51.667Z,856.00
2023-05-09T09:30:51.536Z,864.00
2023-05-09T09:31:51.580Z,841.00
2023-05-09T09:32:51.639Z,834.00
2023-05-09T09:33:51.654Z,844.00
2023-05-09T09:34:52.163Z,834.00
2023-05-09T09:35:51.823Z,846.00
2023-05-09T09:36:51.857Z,860.00
2023-05-09T09:37:51.897Z,862.00
2023-05-09T09:38:51.937Z,876.00
2023-05-09T09:39:52.140Z,890.00
2023-05-09T09:40:52.105Z,898.00
2023-05-09T09:41:52.148Z,904.00
2023-05-09T09:42:52.210Z,897.00
2023-05-09T09:43:52.274Z,901.00
2023-05-09T09:44:52.641Z,906.00
2023-05-09T09:45:52.450Z,810.00
2023-05-09T09:46:52.474Z,876.00
2023-05-09T09:47:52.742Z,900.00
2023-05-09T09:48:52.544Z,906.00
2023-05-09T09:49:52.663Z,862.00
2023-05-09T09:50:52.760Z,854.00
2023-05-09T09:51:52.763Z,871.00
2023-05-09T09:52:52.779Z,893.00
2023-05-09T09:53:52.808Z,911.00
2023-05-09T09:54:53.177Z,930.00
2023-05-09T09:55:52.904Z,915.00
2023-05-09T09:56:52.964Z,919.00
2023-05-09T09:57:53.017Z,928.00
2023-05-09T09:58:53.081Z,949.00
2023-05-09T09:59:53.149Z,953.00
2023-05-09T10:00:53.189Z,956.00
2023-05-09T10:01:53.214Z,959.00
2023-05-09T10:02:53.345Z,964.00
2023-05-09T10:03:53.344Z,970.00
2023-05-09T10:04:53.358Z,976.00
2023-05-09T10:05:53.392Z,985.00
2023-05-09T10:06:53.551Z,991.00
2023-05-09T10:07:53.741Z,996.00
2023-05-09T10:08:53.529Z,996.00
2023-05-09T10:09:53.581Z,1004.00
2023-05-09T10:10:53.747Z,1009.00
2023-05-09T10:11:53.669Z,1013.00
2023-05-09T10:12:53.726Z,1011.00
2023-05-09T10:13:53.753Z,973.00
2023-05-09T10:14:54.177Z,994.00
2023-05-09T10:15:54.292Z,1000.00
2023-05-09T10:16:53.980Z,994.00
2023-05-09T10:17:54.085Z,988.00
2023-05-09T10:18:54.721Z,979.00
2023-05-09T10:19:54.188Z,975.00
2023-05-09T10:20:54.058Z,963.00
2023-05-09T10:21:54.073Z,953.00
2023-05-09T10:22:54.228Z,948.00
2023-05-09T10:23:54.211Z,944.00
2023-05-09T10:24:56.261Z,933.00
2023-05-09T10:25:54.407Z,930.00
2023-05-09T10:26:54.244Z,933.00
2023-05-09T10:27:54.259Z,958.00
2023-05-09T10:28:54.231Z,1011.00
2023-05-09T10:29:54.251Z,1036.00
2023-05-09T10:30:54.257Z,1052.00
2023-05-09T10:31:54.267Z,1056.00
2023-05-09T10:32:54.265Z,1062.00
2023-05-09T10:33:54.214Z,1067.00
2023-05-09T10:34:54.668Z,1068.00
2023-05-09T10:35:54.199Z,1070.00
2023-05-09T10:36:54.195Z,1072.00
2023-05-09T10:37:54.175Z,1075.00
2023-05-09T10:38:54.311Z,1072.00
2023-05-09T10:39:54.186Z,1064.00
2023-05-09T10:40:54.172Z,1064.00
2023-05-09T10:41:54.168Z,1069.00
2023-05-09T10:42:54.145Z,1069.00
2023-05-09T10:43:54.145Z,1067.00
2023-05-09T10:44:54.166Z,1065.00
2023-05-09T10:45:54.147Z,1066.00
2023-05-09T10:46:54.183Z,1067.00
2023-05-09T10:47:54.159Z,1066.00
2023-05-09T10:48:54.154Z,1068.00
2023-05-09T10:49:54.188Z,1066.00
2023-05-09T10:50:54.106Z,1068.00
2023-05-09T10:51:54.099Z,1067.00
2023-05-09T10:52:54.101Z,1071.00
2023-05-09T10:53:54.073Z,1072.00
2023-05-09T10:54:54.264Z,1069.00
2023-05-09T10:55:54.087Z,1059.00
2023-05-09T10:56:54.075Z,1046.00
2023-05-09T10:57:54.078Z,991.00
2023-05-09T10:58:54.037Z,949.00
2023-05-09T10:59:54.189Z,975.00
2023-05-09T11:00:55.179Z,982.00
2023-05-09T11:01:54.070Z,981.00
2023-05-09T11:02:54.084Z,975.00
2023-05-09T11:03:54.047Z,921.00
2023-05-09T11:04:54.010Z,941.00
2023-05-09T11:05:54.030Z,946.00
2023-05-09T11:06:55.770Z,950.00
2023-05-09T11:07:53.993Z,950.00
2023-05-09T11:08:53.999Z,949.00
2023-05-09T11:09:53.996Z,947.00
2023-05-09T11:10:54.077Z,949.00
2023-05-09T11:11:53.993Z,942.00
2023-05-09T11:12:54.905Z,963.00
2023-05-09T11:13:53.987Z,766.00
2023-05-09T11:14:54.195Z,771.00
2023-05-09T11:15:54.071Z,764.00
2023-05-09T11:16:53.946Z,709.00
2023-05-09T11:17:53.993Z,715.00
2023-05-09T11:18:53.943Z,711.00
2023-05-09T11:19:54.199Z,671.00
2023-05-09T11:20:53.943Z,650.00
2023-05-09T11:21:53.919Z,650.00
2023-05-09T11:22:53.902Z,660.00
2023-05-09T11:23:55.239Z,678.00
2023-05-09T11:24:53.917Z,690.00
2023-05-09T11:25:53.892Z,683.00
2023-05-09T11:26:53.960Z,669.00
2023-05-09T11:27:53.882Z,656.00
2023-05-09T11:28:53.924Z,664.00
2023-05-09T11:29:53.869Z,652.00
2023-05-09T11:30:54.821Z,641.00
2023-05-09T11:31:53.894Z,621.00
2023-05-09T11:32:53.906Z,604.00
2023-05-09T11:33:53.852Z,588.00
2023-05-09T11:34:53.853Z,583.00
2023-05-09T11:35:53.840Z,583.00
2023-05-09T11:36:54.508Z,583.00
2023-05-09T11:37:53.826Z,586.00
2023-05-09T11:38:53.877Z,582.00
2023-05-09T11:39:53.943Z,581.00
2023-05-09T11:40:53.967Z,584.00
2023-05-09T11:41:54.003Z,587.00
2023-05-09T11:42:56.292Z,585.00
2023-05-09T11:43:54.034Z,582.00
2023-05-09T11:44:53.997Z,571.00
2023-05-09T11:45:54.013Z,564.00
2023-05-09T11:46:53.982Z,562.00
2023-05-09T11:47:54.059Z,564.00
2023-05-09T11:48:53.953Z,566.00
2023-05-09T11:49:53.955Z,558.00
2023-05-09T11:50:53.954Z,556.00
2023-05-09T11:51:53.976Z,555.00
2023-05-09T11:52:53.961Z,554.00
2023-05-09T11:53:53.965Z,549.00
2023-05-09T11:54:53.928Z,554.00
2023-05-09T11:55:53.936Z,571.00
2023-05-09T11:56:53.947Z,564.00
2023-05-09T11:57:53.926Z,558.00
2023-05-09T11:58:53.978Z,556.00
2023-05-09T11:59:53.917Z,561.00
2023-05-09T12:00:53.884Z,562.00
2023-05-09T12:01:53.874Z,563.00
2023-05-09T12:02:54.037Z,566.00
2023-05-09T12:03:53.983Z,567.00
2023-05-09T12:04:53.876Z,566.00
2023-05-09T12:05:53.958Z,567.00
2023-05-09T12:06:53.859Z,568.00
2023-05-09T12:07:53.858Z,568.00
2023-05-09T12:08:53.876Z,564.00
2023-05-09T12:09:53.850Z,563.00
2023-05-09T12:10:53.873Z,562.00
2023-05-09T12:11:53.844Z,562.00
2023-05-09T12:12:53.857Z,561.00
2023-05-09T12:13:53.812Z,558.00
2023-05-09T12:14:53.912Z,558.00
2023-05-09T12:15:53.882Z,557.00
2023-05-09T12:16:53.834Z,553.00
2023-05-09T12:17:53.853Z,551.00
2023-05-09T12:18:53.810Z,552.00
2023-05-09T12:19:53.809Z,554.00
2023-05-09T12:20:53.769Z,552.00
2023-05-09T12:21:53.782Z,554.00
2023-05-09T12:22:53.778Z,553.00
2023-05-09T12:23:53.754Z,552.00
2023-05-09T12:24:53.764Z,552.00
2023-05-09T12:25:53.744Z,555.00
2023-05-09T12:26:53.740Z,555.00